Time;durP1;ratioP1;P1;durP2;ratioP2;P2;SDS_P1;SDS_P2;PMS_P1;PMS_P2;Temp;Humidity;BMP_temperature;BMP_pressure;BME280_temperature;BME280_humidity;BME280_pressure;Samples;Min_cycle;Max_cycle;Signal;HPM_P1;HPM_P2
2022/02/17 00:00:12;;;;;;;10.75;2.08;;;;;;;;;;4965475;28;20456;-82
2022/02/17 00:02:38;;;;;;;8.15;2.20;;;;;;;;;;4963213;28;20081;-82
2022/02/17 00:05:04;;;;;;;6.80;1.80;;;;;;;;;;4964836;28;20711;-83
2022/02/17 00:07:29;;;;;;;6.78;1.50;;;;;;;;;;4966778;28;20038;-82
2022/02/17 00:09:54;;;;;;;7.43;1.33;;;;;;;;;;4968114;28;20022;-83
2022/02/17 00:12:20;;;;;;;7.68;1.08;;;;;;;;;;4963986;28;20022;-83
2022/02/17 00:14:45;;;;;;;5.93;1.00;;;;;;;;;;4967226;28;20450;-83
2022/02/17 00:17:10;;;;;;;5.15;1.20;;;;;;;;;;4979050;28;20482;-82
2022/02/17 00:19:36;;;;;;;3.25;0.82;;;;;;;;;;4988247;28;20026;-82
2022/02/17 00:22:01;;;;;;;5.68;1.40;;;;;;;;;;4987442;28;20021;-82
2022/02/17 00:24:27;;;;;;;5.75;1.02;;;;;;;;;;5000943;28;20038;-82
2022/02/17 00:26:52;;;;;;;7.40;1.27;;;;;;;;;;4987146;28;20437;-82
2022/02/17 00:29:17;;;;;;;7.75;1.30;;;;;;;;;;5005759;28;20533;-82
2022/02/17 00:31:43;;;;;;;7.75;1.55;;;;;;;;;;4984748;28;20057;-81
2022/02/17 00:34:10;;;;;;;10.85;1.50;;;;;;;;;;4985657;28;20033;-82
2022/02/17 00:36:36;;;;;;;10.07;1.52;;;;;;;;;;4983196;28;20606;-82
2022/02/17 00:39:03;;;;;;;9.55;1.98;;;;;;;;;;4984450;28;20034;-82
2022/02/17 00:41:28;;;;;;;7.45;1.40;;;;;;;;;;5007803;28;20029;-82
2022/02/17 00:43:54;;;;;;;8.30;1.58;;;;;;;;;;5004745;28;20044;-82
2022/02/17 00:46:19;;;;;;;11.65;1.98;;;;;;;;;;4986336;28;20380;-82
2022/02/17 00:48:44;;;;;;;9.00;2.00;;;;;;;;;;4989034;28;20180;-81
2022/02/17 00:51:10;;;;;;;13.32;2.15;;;;;;;;;;4989139;28;20034;-81
2022/02/17 00:53:35;;;;;;;10.52;1.77;;;;;;;;;;4991271;28;20026;-82
2022/02/17 00:56:00;;;;;;;9.02;1.95;;;;;;;;;;4987173;28;20042;-81
2022/02/17 00:58:26;;;;;;;9.52;2.42;;;;;;;;;;5004129;28;20033;-81
2022/02/17 01:00:51;;;;;;;12.20;2.65;;;;;;;;;;4986840;28;20364;-81
2022/02/17 01:03:17;;;;;;;15.65;2.28;;;;;;;;;;4983643;28;20026;-82
2022/02/17 01:05:42;;;;;;;21.48;3.53;;;;;;;;;;4986579;28;20112;-82
2022/02/17 01:08:07;;;;;;;14.48;2.63;;;;;;;;;;5003015;28;20088;-82
2022/02/17 01:10:33;;;;;;;16.27;2.15;;;;;;;;;;4986533;28;20029;-82
2022/02/17 01:13:00;;;;;;;16.02;2.70;;;;;;;;;;4985601;28;20045;-82
2022/02/17 01:15:25;;;;;;;11.85;2.03;;;;;;;;;;4984785;28;20032;-82
2022/02/17 01:17:51;;;;;;;13.38;1.90;;;;;;;;;;4985323;28;20053;-81
2022/02/17 01:20:16;;;;;;;18.90;2.88;;;;;;;;;;4986120;28;20049;-83
2022/02/17 01:22:45;;;;;;;15.60;2.08;;;;;;;;;;5000545;28;20069;-83
2022/02/17 01:25:11;;;;;;;14.25;2.22;;;;;;;;;;5001966;28;20037;-83
2022/02/17 01:27:37;;;;;;;14.15;2.30;;;;;;;;;;5001565;28;20041;-82
2022/02/17 01:30:02;;;;;;;14.98;2.05;;;;;;;;;;4985538;28;20026;-84
2022/02/17 01:32:28;;;;;;;19.58;3.42;;;;;;;;;;4985087;28;20030;-81
2022/02/17 01:34:53;;;;;;;16.52;2.35;;;;;;;;;;4999562;28;20026;-82
2022/02/17 01:37:19;;;;;;;16.83;2.60;;;;;;;;;;4985098;28;20041;-81
2022/02/17 01:39:44;;;;;;;19.60;3.03;;;;;;;;;;5000234;28;20072;-83
2022/02/17 01:42:09;;;;;;;21.20;3.72;;;;;;;;;;4987740;28;20038;-82
2022/02/17 01:44:35;;;;;;;20.52;2.60;;;;;;;;;;5002724;28;20399;-82
2022/02/17 01:47:00;;;;;;;16.02;2.80;;;;;;;;;;5004851;28;20033;-82
2022/02/17 01:49:26;;;;;;;18.73;3.15;;;;;;;;;;5002283;28;20390;-81
2022/02/17 01:51:51;;;;;;;21.63;3.38;;;;;;;;;;4986665;28;20535;-82
2022/02/17 01:54:18;;;;;;;16.25;3.05;;;;;;;;;;4986875;28;20033;-82
2022/02/17 01:56:44;;;;;;;21.88;2.42;;;;;;;;;;4991728;28;20036;-81
2022/02/17 01:59:10;;;;;;;21.85;3.53;;;;;;;;;;4987577;28;20034;-82
2022/02/17 02:01:36;;;;;;;15.98;2.42;;;;;;;;;;4987289;28;20026;-82
2022/02/17 02:04:03;;;;;;;17.23;2.80;;;;;;;;;;4988516;28;20036;-81
2022/02/17 02:06:29;;;;;;;19.13;2.80;;;;;;;;;;4984485;28;20494;-82
2022/02/17 02:08:54;;;;;;;18.65;2.78;;;;;;;;;;4990219;28;20033;-82
2022/02/17 02:11:19;;;;;;;16.70;2.80;;;;;;;;;;4987686;28;20041;-82
2022/02/17 02:13:45;;;;;;;15.95;3.30;;;;;;;;;;4985359;28;20116;-82
2022/02/17 02:16:10;;;;;;;22.45;2.92;;;;;;;;;;4985695;28;20394;-82
2022/02/17 02:18:36;;;;;;;15.63;3.00;;;;;;;;;;4971633;28;20068;-82
2022/02/17 02:21:03;;;;;;;16.85;2.65;;;;;;;;;;4971184;28;20177;-82
2022/02/17 02:23:29;;;;;;;20.23;3.00;;;;;;;;;;4982847;28;20045;-81
2022/02/17 02:25:55;;;;;;;23.10;3.50;;;;;;;;;;4968969;28;20065;-82
2022/02/17 02:28:29;;;;;;;16.60;2.53;;;;;;;;;;4969436;28;20077;-82
2022/02/17 02:30:55;;;;;;;19.63;3.33;;;;;;;;;;4969888;28;20038;-82
2022/02/17 02:33:22;;;;;;;23.23;3.38;;;;;;;;;;4967919;28;20116;-82
2022/02/17 02:35:48;;;;;;;19.70;3.88;;;;;;;;;;4962786;28;20157;-82
2022/02/17 02:38:14;;;;;;;18.90;3.63;;;;;;;;;;4969605;28;20038;-82
2022/02/17 02:40:42;;;;;;;23.40;3.80;;;;;;;;;;4969609;28;20057;-83
2022/02/17 02:43:08;;;;;;;21.08;3.85;;;;;;;;;;4970821;28;20034;-83
2022/02/17 02:45:35;;;;;;;22.45;4.13;;;;;;;;;;4984480;28;20718;-83
2022/02/17 02:48:10;;;;;;;20.58;3.05;;;;;;;;;;4982935;28;20041;-82
2022/02/17 02:50:36;;;;;;;28.63;4.40;;;;;;;;;;4967475;28;20439;-83
2022/02/17 02:53:02;;;;;;;19.73;3.53;;;;;;;;;;4967876;28;20030;-82
2022/02/17 02:55:28;;;;;;;18.15;3.28;;;;;;;;;;4981195;28;20476;-81
2022/02/17 02:57:53;;;;;;;16.15;2.85;;;;;;;;;;4986392;28;20030;-82
2022/02/17 03:00:19;;;;;;;15.38;2.67;;;;;;;;;;4967804;28;20085;-81
2022/02/17 03:02:44;;;;;;;18.45;3.13;;;;;;;;;;4984462;28;20034;-82
2022/02/17 03:05:11;;;;;;;17.80;2.90;;;;;;;;;;4964752;28;20037;-83
2022/02/17 03:07:37;;;;;;;21.33;3.67;;;;;;;;;;4979769;28;20041;-82
2022/02/17 03:10:03;;;;;;;14.68;2.85;;;;;;;;;;4987367;28;20034;-83
2022/02/17 03:12:29;;;;;;;17.58;3.05;;;;;;;;;;4986052;28;20034;-82
2022/02/17 03:14:54;;;;;;;13.68;2.33;;;;;;;;;;4969691;28;20033;-82
2022/02/17 03:17:19;;;;;;;12.95;2.28;;;;;;;;;;4975275;28;20696;-82
2022/02/17 03:19:45;;;;;;;22.00;2.78;;;;;;;;;;4988785;28;20489;-84
2022/02/17 03:22:10;;;;;;;15.40;2.58;;;;;;;;;;4989500;28;20042;-84
2022/02/17 03:24:36;;;;;;;16.13;2.30;;;;;;;;;;4987573;28;20028;-83
2022/02/17 03:27:01;;;;;;;13.20;2.22;;;;;;;;;;4988161;28;20113;-83
2022/02/17 03:29:26;;;;;;;18.33;2.78;;;;;;;;;;4986354;28;20022;-83
2022/02/17 03:31:52;;;;;;;16.98;2.67;;;;;;;;;;4989601;28;20107;-84
2022/02/17 03:34:18;;;;;;;11.75;2.08;;;;;;;;;;5003542;28;20026;-83
2022/02/17 03:36:43;;;;;;;17.33;2.45;;;;;;;;;;5002677;28;20096;-82
2022/02/17 03:39:08;;;;;;;13.80;2.17;;;;;;;;;;4985229;28;20080;-84
2022/02/17 03:41:34;;;;;;;13.55;2.15;;;;;;;;;;4990568;28;20026;-81
2022/02/17 03:43:59;;;;;;;14.57;2.60;;;;;;;;;;4987515;28;20133;-84
2022/02/17 03:46:24;;;;;;;15.95;2.47;;;;;;;;;;4987500;28;20033;-82
2022/02/17 03:48:50;;;;;;;15.38;2.50;;;;;;;;;;4989080;28;20036;-83
2022/02/17 03:51:15;;;;;;;19.13;3.22;;;;;;;;;;4990072;28;20034;-82
2022/02/17 03:53:40;;;;;;;18.33;3.08;;;;;;;;;;4991150;28;20029;-82
2022/02/17 03:56:06;;;;;;;18.17;2.70;;;;;;;;;;4991244;28;20029;-84
2022/02/17 04:01:15;;;;;;;17.33;2.97;;;;;;;;;;5003468;28;20037;-84
2022/02/17 04:03:40;;;;;;;20.33;3.17;;;;;;;;;;4989867;28;20025;-83
2022/02/17 04:06:06;;;;;;;18.63;3.50;;;;;;;;;;4998521;28;20037;-83
2022/02/17 04:08:31;;;;;;;22.20;3.72;;;;;;;;;;4987466;28;20034;-83
2022/02/17 04:10:57;;;;;;;24.20;3.05;;;;;;;;;;5004615;28;20435;-84
2022/02/17 04:13:22;;;;;;;21.48;2.90;;;;;;;;;;5008659;28;20478;-83
2022/02/17 04:15:47;;;;;;;22.88;3.58;;;;;;;;;;4988378;28;20026;-85
2022/02/17 04:18:13;;;;;;;20.48;3.65;;;;;;;;;;4990468;28;20046;-82
2022/02/17 04:20:38;;;;;;;22.58;3.45;;;;;;;;;;5003182;28;23323;-85
2022/02/17 04:23:04;;;;;;;22.50;3.88;;;;;;;;;;4989107;28;20069;-81
2022/02/17 04:25:29;;;;;;;28.38;3.45;;;;;;;;;;5001819;28;20036;-84
2022/02/17 04:27:55;;;;;;;25.35;4.07;;;;;;;;;;4986872;28;20034;-82
2022/02/17 04:30:20;;;;;;;19.92;3.03;;;;;;;;;;4990240;28;20028;-84
2022/02/17 04:32:45;;;;;;;21.75;3.63;;;;;;;;;;4998972;28;20026;-83
2022/02/17 04:35:11;;;;;;;18.77;3.08;;;;;;;;;;4991674;28;20076;-84
2022/02/17 04:37:36;;;;;;;20.58;3.35;;;;;;;;;;4988677;28;20030;-83
2022/02/17 04:40:01;;;;;;;21.48;3.05;;;;;;;;;;4987914;28;20079;-84
2022/02/17 04:42:28;;;;;;;26.92;4.15;;;;;;;;;;4987350;28;20109;-83
2022/02/17 04:44:54;;;;;;;23.48;3.72;;;;;;;;;;4988842;28;20435;-84
2022/02/17 04:47:20;;;;;;;26.15;3.72;;;;;;;;;;4990615;28;20044;-84
2022/02/17 04:49:48;;;;;;;18.70;3.45;;;;;;;;;;4983604;28;20022;-84
2022/02/17 04:52:14;;;;;;;23.13;3.90;;;;;;;;;;5004295;28;20391;-84
2022/02/17 04:54:39;;;;;;;31.75;4.78;;;;;;;;;;4990829;28;20035;-82
2022/02/17 04:57:05;;;;;;;24.92;4.18;;;;;;;;;;4987866;28;20075;-83
2022/02/17 04:59:35;;;;;;;21.58;3.53;;;;;;;;;;4982446;28;20402;-84
2022/02/17 05:02:00;;;;;;;26.23;3.58;;;;;;;;;;5004759;28;20509;-82
2022/02/17 05:04:26;;;;;;;23.38;4.57;;;;;;;;;;4983620;28;20030;-84
2022/02/17 05:06:51;;;;;;;26.65;3.90;;;;;;;;;;4985490;28;20072;-84
2022/02/17 05:09:17;;;;;;;23.20;3.78;;;;;;;;;;4981233;28;20030;-82
2022/02/17 05:11:42;;;;;;;20.60;3.90;;;;;;;;;;4985918;28;20487;-83
2022/02/17 05:14:07;;;;;;;28.30;4.00;;;;;;;;;;4985389;28;20022;-81
2022/02/17 05:16:33;;;;;;;24.77;4.32;;;;;;;;;;4991931;28;20054;-82
2022/02/17 05:18:58;;;;;;;25.48;3.75;;;;;;;;;;4988692;28;20022;-82
2022/02/17 05:21:24;;;;;;;26.10;4.35;;;;;;;;;;5002762;28;20120;-83
2022/02/17 05:23:49;;;;;;;24.15;3.90;;;;;;;;;;4989526;28;20121;-84
2022/02/17 05:26:15;;;;;;;22.95;3.38;;;;;;;;;;4987686;28;20026;-85
2022/02/17 05:28:40;;;;;;;24.77;4.13;;;;;;;;;;4991479;28;20116;-81
2022/02/17 05:31:05;;;;;;;27.15;3.97;;;;;;;;;;5003842;28;20044;-84
2022/02/17 05:33:31;;;;;;;27.27;4.68;;;;;;;;;;5011484;28;20023;-83
2022/02/17 05:35:56;;;;;;;25.00;4.68;;;;;;;;;;4991012;28;20137;-81
2022/02/17 05:38:22;;;;;;;33.58;4.57;;;;;;;;;;4986505;28;20525;-82
2022/02/17 05:40:47;;;;;;;25.05;4.10;;;;;;;;;;4989580;28;20033;-82
2022/02/17 05:43:13;;;;;;;24.27;3.63;;;;;;;;;;4993133;28;20030;-81
2022/02/17 05:45:38;;;;;;;26.30;4.57;;;;;;;;;;4990752;28;20116;-84
2022/02/17 05:48:04;;;;;;;22.75;3.75;;;;;;;;;;4990077;28;20033;-85
2022/02/17 05:50:29;;;;;;;18.48;3.60;;;;;;;;;;5008773;28;20033;-82
2022/02/17 05:52:55;;;;;;;25.10;4.10;;;;;;;;;;4989021;28;20049;-86
2022/02/17 05:55:20;;;;;;;23.35;3.70;;;;;;;;;;4987622;28;20037;-84
2022/02/17 05:57:45;;;;;;;14.05;3.00;;;;;;;;;;4993297;28;20554;-85
2022/02/17 06:00:12;;;;;;;20.42;4.03;;;;;;;;;;4983015;28;20033;-84
2022/02/17 06:02:37;;;;;;;19.27;3.35;;;;;;;;;;4978662;28;20117;-82
2022/02/17 06:05:03;;;;;;;23.27;3.30;;;;;;;;;;4985176;28;20199;-82
2022/02/17 06:07:29;;;;;;;20.58;3.83;;;;;;;;;;5002792;28;20034;-82
2022/02/17 06:09:54;;;;;;;25.38;3.63;;;;;;;;;;4991871;28;20028;-82
2022/02/17 06:12:19;;;;;;;16.38;3.13;;;;;;;;;;4987984;28;20384;-86
2022/02/17 06:14:45;;;;;;;20.08;2.97;;;;;;;;;;4988956;28;20069;-83
2022/02/17 06:17:10;;;;;;;15.18;2.67;;;;;;;;;;4989459;28;20042;-85
2022/02/17 06:19:35;;;;;;;16.05;3.05;;;;;;;;;;5008130;28;20084;-81
2022/02/17 06:22:01;;;;;;;18.15;3.03;;;;;;;;;;5005943;28;20097;-84
2022/02/17 06:24:26;;;;;;;16.50;2.40;;;;;;;;;;4987512;28;20053;-86
2022/02/17 06:26:52;;;;;;;20.08;2.80;;;;;;;;;;4998711;28;20030;-84
2022/02/17 06:29:17;;;;;;;17.88;3.38;;;;;;;;;;4983636;28;20037;-84
2022/02/17 06:31:44;;;;;;;14.52;2.47;;;;;;;;;;4982840;28;20040;-84
2022/02/17 06:34:10;;;;;;;14.75;2.85;;;;;;;;;;4980305;28;20466;-82
2022/02/17 06:36:35;;;;;;;22.25;3.22;;;;;;;;;;4977052;28;20234;-83
2022/02/17 06:39:00;;;;;;;16.00;3.05;;;;;;;;;;4985948;28;20033;-84
2022/02/17 06:41:26;;;;;;;20.25;3.28;;;;;;;;;;5006984;28;20494;-86
2022/02/17 06:43:51;;;;;;;19.08;3.63;;;;;;;;;;4990320;28;20513;-82
2022/02/17 06:46:16;;;;;;;17.30;2.67;;;;;;;;;;5003553;28;20030;-82
2022/02/17 06:48:42;;;;;;;16.05;2.47;;;;;;;;;;4990829;28;20026;-82
2022/02/17 06:51:07;;;;;;;19.08;3.03;;;;;;;;;;4987968;28;20037;-82
2022/02/17 06:53:33;;;;;;;15.05;3.35;;;;;;;;;;5007800;28;20030;-84
2022/02/17 06:55:58;;;;;;;15.95;2.33;;;;;;;;;;4988359;28;20029;-82
2022/02/17 06:58:24;;;;;;;18.17;2.95;;;;;;;;;;4990900;28;20018;-86
2022/02/17 07:00:49;;;;;;;19.98;2.72;;;;;;;;;;5005459;28;20033;-82
2022/02/17 07:03:14;;;;;;;16.63;2.30;;;;;;;;;;4991712;28;20406;-81
2022/02/17 07:05:40;;;;;;;15.27;2.03;;;;;;;;;;4988890;28;20042;-82
2022/02/17 07:08:06;;;;;;;16.38;2.03;;;;;;;;;;5009285;28;20041;-84
2022/02/17 07:13:15;;;;;;;16.95;2.47;;;;;;;;;;5008390;28;20041;-81
2022/02/17 07:15:43;;;;;;;9.85;1.85;;;;;;;;;;5002943;28;20510;-85
2022/02/17 07:18:09;;;;;;;7.97;1.58;;;;;;;;;;4987170;28;20383;-82
2022/02/17 07:20:39;;;;;;;11.52;1.95;;;;;;;;;;4989418;28;20489;-83
2022/02/17 07:23:04;;;;;;;9.18;1.70;;;;;;;;;;4983230;28;20105;-83
2022/02/17 07:25:30;;;;;;;7.22;1.58;;;;;;;;;;4989954;28;20120;-85
2022/02/17 07:27:56;;;;;;;11.50;1.73;;;;;;;;;;4979791;28;20687;-83
2022/02/17 07:30:21;;;;;;;13.70;2.10;;;;;;;;;;4988066;28;20042;-84
2022/02/17 07:32:46;;;;;;;13.57;1.98;;;;;;;;;;5011672;28;20034;-82
2022/02/17 07:35:12;;;;;;;17.75;2.78;;;;;;;;;;4985126;28;20029;-84
2022/02/17 07:37:38;;;;;;;20.77;3.28;;;;;;;;;;5003803;28;20387;-84
2022/02/17 07:40:06;;;;;;;13.38;2.90;;;;;;;;;;4990414;28;20127;-82
2022/02/17 07:42:31;;;;;;;13.10;1.98;;;;;;;;;;4985586;28;20034;-82
2022/02/17 07:44:59;;;;;;;12.80;1.77;;;;;;;;;;4988579;28;20037;-81
2022/02/17 07:47:24;;;;;;;10.80;1.48;;;;;;;;;;4991237;28;20033;-84
2022/02/17 07:49:49;;;;;;;11.18;1.42;;;;;;;;;;5007840;28;20669;-82
2022/02/17 07:52:15;;;;;;;7.32;1.50;;;;;;;;;;5005697;28;20026;-82
2022/02/17 07:54:40;;;;;;;13.27;2.00;;;;;;;;;;4991817;28;20026;-84
2022/02/17 07:57:06;;;;;;;7.70;1.52;;;;;;;;;;4989918;28;20417;-82
2022/02/17 07:59:31;;;;;;;6.65;1.23;;;;;;;;;;4991317;28;20551;-83
2022/02/17 08:01:57;;;;;;;9.07;1.08;;;;;;;;;;5010258;28;20420;-82
2022/02/17 08:04:23;;;;;;;9.65;1.73;;;;;;;;;;4988923;28;20116;-84
2022/02/17 08:06:48;;;;;;;9.00;2.00;;;;;;;;;;4993571;28;20041;-83
2022/02/17 08:09:13;;;;;;;9.95;1.30;;;;;;;;;;4993673;28;20033;-82
2022/02/17 08:11:39;;;;;;;9.40;1.05;;;;;;;;;;4986420;28;20063;-84
2022/02/17 08:14:04;;;;;;;9.23;1.33;;;;;;;;;;4991148;28;20021;-85
2022/02/17 08:16:30;;;;;;;10.63;1.67;;;;;;;;;;4996646;28;20507;-83
2022/02/17 08:18:55;;;;;;;10.43;1.38;;;;;;;;;;4964237;28;20032;-83
2022/02/17 08:21:21;;;;;;;10.10;2.03;;;;;;;;;;4982900;28;20034;-83
2022/02/17 08:23:47;;;;;;;11.50;1.58;;;;;;;;;;4966047;28;20038;-84
2022/02/17 08:26:13;;;;;;;13.43;2.22;;;;;;;;;;4967861;28;20072;-86
2022/02/17 08:28:38;;;;;;;11.93;1.65;;;;;;;;;;4969171;28;20387;-83
2022/02/17 08:31:06;;;;;;;13.93;1.60;;;;;;;;;;4969082;28;20141;-86
2022/02/17 08:33:40;;;;;;;13.13;1.75;;;;;;;;;;4974405;28;20054;-86
2022/02/17 08:36:06;;;;;;;8.75;1.58;;;;;;;;;;4971610;28;20022;-84
2022/02/17 08:38:31;;;;;;;10.10;1.50;;;;;;;;;;4967823;28;20394;-82
2022/02/17 08:40:58;;;;;;;6.80;1.05;;;;;;;;;;4974015;28;20022;-82
2022/02/17 08:43:24;;;;;;;7.28;1.35;;;;;;;;;;4971003;28;20036;-84
2022/02/17 08:45:49;;;;;;;6.72;1.05;;;;;;;;;;4967546;28;20782;-86
2022/02/17 08:48:15;;;;;;;7.28;1.20;;;;;;;;;;4968711;28;20148;-81
2022/02/17 08:50:43;;;;;;;9.10;1.30;;;;;;;;;;4984088;28;20038;-84
2022/02/17 08:53:11;;;;;;;9.15;1.30;;;;;;;;;;4977244;28;20112;-82
2022/02/17 08:55:37;;;;;;;10.52;1.25;;;;;;;;;;4964745;28;20037;-83
2022/02/17 08:58:02;;;;;;;10.80;1.45;;;;;;;;;;4962868;28;20034;-82
2022/02/17 09:00:28;;;;;;;14.85;1.55;;;;;;;;;;4962481;28;20034;-86
2022/02/17 09:02:59;;;;;;;17.55;1.70;;;;;;;;;;4965463;28;20035;-83
2022/02/17 09:05:34;;;;;;;12.55;1.77;;;;;;;;;;4966281;28;20022;-82
2022/02/17 09:08:00;;;;;;;7.80;1.50;;;;;;;;;;4964170;28;20084;-86
2022/02/17 09:10:26;;;;;;;12.65;2.33;;;;;;;;;;4967586;28;20487;-83
2022/02/17 09:12:51;;;;;;;11.38;1.65;;;;;;;;;;4966838;28;20072;-83
2022/02/17 09:15:17;;;;;;;11.23;1.60;;;;;;;;;;4966225;28;20022;-84
2022/02/17 09:17:46;;;;;;;10.07;1.50;;;;;;;;;;4966358;28;20039;-86
2022/02/17 09:20:12;;;;;;;11.00;1.40;;;;;;;;;;5002995;28;20040;-84
2022/02/17 09:22:39;;;;;;;7.07;1.60;;;;;;;;;;4974012;28;20026;-84
2022/02/17 09:25:05;;;;;;;12.25;1.63;;;;;;;;;;4987558;28;20128;-82
2022/02/17 09:27:31;;;;;;;7.95;1.67;;;;;;;;;;4967870;28;20415;-83
2022/02/17 09:29:57;;;;;;;11.05;1.75;;;;;;;;;;4964926;28;20037;-82
2022/02/17 09:32:23;;;;;;;11.60;1.67;;;;;;;;;;4969677;28;20022;-82
2022/02/17 09:34:49;;;;;;;7.00;1.23;;;;;;;;;;4963509;28;20030;-84
2022/02/17 09:37:14;;;;;;;11.48;1.65;;;;;;;;;;4987461;28;20621;-86
2022/02/17 09:39:52;;;;;;;12.25;1.55;;;;;;;;;;4964327;28;20476;-84
2022/02/17 09:42:23;;;;;;;8.07;0.98;;;;;;;;;;4963583;28;20034;-85
2022/02/17 09:44:48;;;;;;;13.20;1.60;;;;;;;;;;4964521;28;20034;-86
2022/02/17 09:47:15;;;;;;;8.15;1.20;;;;;;;;;;4964641;28;20390;-86
2022/02/17 09:49:42;;;;;;;12.38;1.73;;;;;;;;;;4971188;28;20496;-86
2022/02/17 09:52:11;;;;;;;6.55;1.27;;;;;;;;;;4958591;28;20490;-85
2022/02/17 09:54:37;;;;;;;7.07;1.23;;;;;;;;;;4968191;28;20038;-85
2022/02/17 09:57:03;;;;;;;12.07;1.40;;;;;;;;;;4979062;28;20049;-84
2022/02/17 09:59:29;;;;;;;7.22;1.23;;;;;;;;;;4993143;28;20026;-86
2022/02/17 10:01:58;;;;;;;8.80;1.48;;;;;;;;;;4958279;28;20044;-82
2022/02/17 10:04:26;;;;;;;10.13;1.20;;;;;;;;;;4977106;28;20076;-85
2022/02/17 10:07:00;;;;;;;6.68;1.10;;;;;;;;;;4984298;28;20113;-85
2022/02/17 10:09:42;;;;;;;6.75;1.15;;;;;;;;;;4967659;28;20018;-83
2022/02/17 10:12:10;;;;;;;7.90;1.00;;;;;;;;;;4969608;28;20045;-84
2022/02/17 10:14:39;;;;;;;9.30;1.13;;;;;;;;;;4980266;28;20286;-83
2022/02/17 10:17:26;;;;;;;8.35;1.60;;;;;;;;;;4984134;28;20035;-84
2022/02/17 10:19:55;;;;;;;8.23;1.20;;;;;;;;;;4990116;28;20030;-85
2022/02/17 10:22:30;;;;;;;5.97;1.10;;;;;;;;;;4993588;28;20270;-81
2022/02/17 10:24:55;;;;;;;6.30;1.00;;;;;;;;;;4997811;28;20034;-85
2022/02/17 10:27:29;;;;;;;7.05;1.50;;;;;;;;;;4994742;28;20084;-82
2022/02/17 10:30:13;;;;;;;9.32;1.80;;;;;;;;;;4993792;28;20083;-82
2022/02/17 10:33:07;;;;;;;13.25;1.73;;;;;;;;;;4993693;28;20414;-87
2022/02/17 10:35:33;;;;;;;7.93;1.15;;;;;;;;;;4985314;28;20045;-82
2022/02/17 10:38:00;;;;;;;9.05;1.33;;;;;;;;;;4991896;28;20108;-82
2022/02/17 10:40:32;;;;;;;9.77;1.33;;;;;;;;;;5007999;28;20860;-85
2022/02/17 10:43:04;;;;;;;7.72;1.58;;;;;;;;;;4995746;28;20096;-86
2022/02/17 10:45:30;;;;;;;10.50;1.40;;;;;;;;;;5007739;28;20025;-83
2022/02/17 10:48:20;;;;;;;6.93;1.05;;;;;;;;;;4996863;28;20403;-83
2022/02/17 10:51:01;;;;;;;8.38;1.17;;;;;;;;;;4990341;28;20495;-86
2022/02/17 10:53:42;;;;;;;8.27;1.23;;;;;;;;;;4990643;28;20389;-81
2022/02/17 10:56:10;;;;;;;8.65;1.23;;;;;;;;;;4992835;28;20030;-85
2022/02/17 10:58:48;;;;;;;;;;;;;;;;;;;;;
2022/02/17 11:01:22;;;;;;;5.15;0.85;;;;;;;;;;4995428;28;20030;-83
2022/02/17 11:04:07;;;;;;;9.25;1.77;;;;;;;;;;4995014;28;20029;-87
2022/02/17 11:06:43;;;;;;;7.55;1.02;;;;;;;;;;5006406;28;20044;-86
2022/02/17 11:09:09;;;;;;;10.57;1.67;;;;;;;;;;4989218;28;20486;-84
2022/02/17 11:11:41;;;;;;;6.70;1.45;;;;;;;;;;4991484;28;20061;-83
2022/02/17 11:14:07;;;;;;;7.95;1.25;;;;;;;;;;4993085;28;20368;-82
2022/02/17 11:16:42;;;;;;;9.25;1.10;;;;;;;;;;4991431;28;20041;-84
2022/02/17 11:19:10;;;;;;;10.60;1.17;;;;;;;;;;4972266;28;20467;-87
2022/02/17 11:21:40;;;;;;;10.27;1.23;;;;;;;;;;4968327;28;20034;-86
2022/02/17 11:24:09;;;;;;;8.23;1.20;;;;;;;;;;4968944;28;20026;-84
2022/02/17 11:26:39;;;;;;;7.03;1.10;;;;;;;;;;4971078;28;20031;-82
2022/02/17 11:29:27;;;;;;;11.45;1.55;;;;;;;;;;4969328;28;20121;-86
2022/02/17 11:32:01;;;;;;;7.70;1.40;;;;;;;;;;4969815;28;20027;-83
2022/02/17 11:34:41;;;;;;;8.48;1.20;;;;;;;;;;4974636;28;20479;-81
2022/02/17 11:37:31;;;;;;;8.20;1.23;;;;;;;;;;4972674;28;20525;-84
2022/02/17 11:40:14;;;;;;;9.02;1.75;;;;;;;;;;4990014;28;20045;-82
2022/02/17 11:42:45;;;;;;;6.03;1.10;;;;;;;;;;4970132;28;20100;-86
2022/02/17 11:45:15;;;;;;;9.00;0.90;;;;;;;;;;4972539;28;20125;-86
2022/02/17 11:48:12;;;;;;;11.40;1.60;;;;;;;;;;4968766;28;20027;-82
2022/02/17 11:50:45;;;;;;;8.88;0.90;;;;;;;;;;4989696;28;20066;-83
2022/02/17 11:53:46;;;;;;;5.70;1.10;;;;;;;;;;4967415;28;20026;-80
2022/02/17 11:58:39;;;;;;;5.80;0.90;;;;;;;;;;4986806;28;20856;-83
2022/02/17 12:01:27;;;;;;;5.18;0.88;;;;;;;;;;4974872;28;20030;-81
2022/02/17 12:04:09;;;;;;;6.13;1.20;;;;;;;;;;4968664;28;20049;-82
2022/02/17 12:06:38;;;;;;;9.93;1.50;;;;;;;;;;4972276;28;20041;-82
2022/02/17 12:09:07;;;;;;;6.95;1.17;;;;;;;;;;4969839;28;20104;-83
2022/02/17 12:11:41;;;;;;;8.85;1.08;;;;;;;;;;4972117;28;20030;-84
2022/02/17 12:14:08;;;;;;;9.57;1.55;;;;;;;;;;4970556;28;20033;-82
2022/02/17 12:16:38;;;;;;;9.20;1.23;;;;;;;;;;4985101;28;20562;-82
2022/02/17 12:19:15;;;;;;;8.13;1.58;;;;;;;;;;4983479;28;20118;-80
2022/02/17 12:21:47;;;;;;;5.38;0.90;;;;;;;;;;4974116;28;20057;-84
2022/02/17 12:24:15;;;;;;;8.73;1.17;;;;;;;;;;4987853;28;20597;-83
2022/02/17 12:26:51;;;;;;;9.05;1.27;;;;;;;;;;4988116;28;20108;-82
2022/02/17 12:29:20;;;;;;;6.85;1.20;;;;;;;;;;4974896;28;20097;-84
2022/02/17 12:31:49;;;;;;;9.43;1.33;;;;;;;;;;4991453;28;20598;-83
2022/02/17 12:34:21;;;;;;;11.85;1.48;;;;;;;;;;4965669;28;20102;-83
2022/02/17 12:36:55;;;;;;;9.63;2.38;;;;;;;;;;4962922;28;20491;-81
2022/02/17 12:39:25;;;;;;;8.02;1.30;;;;;;;;;;4962951;28;20097;-84
2022/02/17 12:42:05;;;;;;;5.93;1.35;;;;;;;;;;4965749;28;20034;-83
2022/02/17 12:44:35;;;;;;;6.97;1.08;;;;;;;;;;5000833;28;20037;-83
2022/02/17 12:47:10;;;;;;;9.55;1.35;;;;;;;;;;4996604;28;20030;-84
2022/02/17 12:49:36;;;;;;;6.72;1.25;;;;;;;;;;4960092;28;20027;-82
2022/02/17 12:52:17;;;;;;;7.70;1.13;;;;;;;;;;4967030;28;20034;-85
2022/02/17 12:54:52;;;;;;;7.47;1.10;;;;;;;;;;4967240;28;20026;-85
2022/02/17 12:57:18;;;;;;;10.07;0.90;;;;;;;;;;4979625;28;20056;-83
2022/02/17 12:59:46;;;;;;;8.55;1.20;;;;;;;;;;4962154;28;20134;-83
2022/02/17 13:02:12;;;;;;;10.25;1.67;;;;;;;;;;4967142;28;21455;-81
2022/02/17 13:04:40;;;;;;;8.88;1.60;;;;;;;;;;4998649;28;20034;-85
2022/02/17 13:07:09;;;;;;;13.88;1.70;;;;;;;;;;4965398;28;20035;-82
2022/02/17 13:09:35;;;;;;;9.60;1.48;;;;;;;;;;5000287;28;20542;-83
2022/02/17 13:12:04;;;;;;;13.05;1.75;;;;;;;;;;4967649;28;20406;-83
2022/02/17 13:14:32;;;;;;;11.50;1.50;;;;;;;;;;4979655;28;20383;-83
2022/02/17 13:17:06;;;;;;;12.15;2.00;;;;;;;;;;4975769;28;20522;-82
2022/02/17 13:19:39;;;;;;;13.20;1.70;;;;;;;;;;4983023;28;20398;-86
2022/02/17 13:22:15;;;;;;;10.13;1.88;;;;;;;;;;4989188;28;20397;-86
2022/02/17 13:24:51;;;;;;;12.70;1.50;;;;;;;;;;4988536;28;20040;-81
2022/02/17 13:27:19;;;;;;;14.45;2.58;;;;;;;;;;4991036;28;20511;-85
2022/02/17 13:30:18;;;;;;;12.50;2.05;;;;;;;;;;4992533;28;20049;-84
2022/02/17 13:33:00;;;;;;;10.98;1.60;;;;;;;;;;4986837;28;20120;-81
2022/02/17 13:35:26;;;;;;;10.10;1.88;;;;;;;;;;4987560;28;20141;-85
2022/02/17 13:38:03;;;;;;;9.32;1.42;;;;;;;;;;5004098;28;20030;-85
2022/02/17 13:40:46;;;;;;;12.82;2.45;;;;;;;;;;4987396;28;20486;-86
2022/02/17 13:43:11;;;;;;;12.32;1.38;;;;;;;;;;4987152;28;20119;-84
2022/02/17 13:45:40;;;;;;;10.57;1.50;;;;;;;;;;4982506;28;20755;-82
2022/02/17 13:48:08;;;;;;;10.10;1.35;;;;;;;;;;4994542;28;20022;-85
2022/02/17 13:50:34;;;;;;;8.95;1.15;;;;;;;;;;4989760;28;20032;-83
2022/02/17 13:53:22;;;;;;;6.95;1.55;;;;;;;;;;4986664;28;20037;-86
2022/02/17 13:55:59;;;;;;;6.78;1.50;;;;;;;;;;4984576;28;20056;-82
2022/02/17 13:58:26;;;;;;;6.82;1.27;;;;;;;;;;4988898;28;20042;-86
2022/02/17 14:00:54;;;;;;;7.25;1.05;;;;;;;;;;4988654;28;20058;-82
2022/02/17 14:06:56;;;;;;;9.18;1.00;;;;;;;;;;4990495;28;20810;-82
2022/02/17 14:09:21;;;;;;;8.45;1.20;;;;;;;;;;4992957;28;20470;-83
2022/02/17 14:11:49;;;;;;;9.57;1.50;;;;;;;;;;5013197;28;20040;-83
2022/02/17 14:14:15;;;;;;;6.90;1.30;;;;;;;;;;5006493;28;20022;-84
2022/02/17 14:16:52;;;;;;;9.00;1.25;;;;;;;;;;4989830;28;20048;-82
2022/02/17 14:19:18;;;;;;;7.70;0.95;;;;;;;;;;4972825;28;20121;-83
2022/02/17 14:21:44;;;;;;;8.75;1.30;;;;;;;;;;4970894;28;20557;-82
2022/02/17 14:24:09;;;;;;;8.50;0.93;;;;;;;;;;4967805;28;20034;-86
2022/02/17 14:26:38;;;;;;;7.13;1.10;;;;;;;;;;4973305;28;20113;-86
2022/02/17 14:29:05;;;;;;;6.80;0.93;;;;;;;;;;4965452;28;20081;-81
2022/02/17 14:31:31;;;;;;;6.35;1.05;;;;;;;;;;4990641;28;20030;-80
2022/02/17 14:33:57;;;;;;;4.85;0.95;;;;;;;;;;4971462;28;20113;-82
2022/02/17 14:36:22;;;;;;;14.32;1.30;;;;;;;;;;4969269;28;20121;-82
2022/02/17 14:38:47;;;;;;;4.88;0.90;;;;;;;;;;4984617;28;20038;-83
2022/02/17 14:41:13;;;;;;;6.13;1.05;;;;;;;;;;4974530;28;20038;-83
2022/02/17 14:43:39;;;;;;;7.53;1.15;;;;;;;;;;4985501;28;20038;-82
2022/02/17 14:46:05;;;;;;;6.88;0.80;;;;;;;;;;4966069;28;20052;-87
2022/02/17 14:48:34;;;;;;;5.22;0.70;;;;;;;;;;4975829;28;20034;-82
2022/02/17 14:51:02;;;;;;;4.45;0.80;;;;;;;;;;4988555;28;20105;-87